Time;durP1;ratioP1;P1;durP2;ratioP2;P2;SDS_P1;SDS_P2;PMS_P1;PMS_P2;Temp;Humidity;BMP_temperature;BMP_pressure;BME280_temperature;BME280_humidity;BME280_pressure;Samples;Min_cycle;Max_cycle;Signal;HPM_P1;HPM_P2
2023/02/01 13:43:06;;;;;;;13.95;2.55;;;;;;;4.75;92.86;99579.34;5073489;27;20743;-79
2023/02/01 13:45:37;;;;;;;9.68;2.17;;;;;;;4.84;92.96;99574.16;5060782;28;20045;-79
2023/02/01 13:48:06;;;;;;;9.93;2.35;;;;;;;4.71;92.70;99550.16;5067795;28;20056;-80
2023/02/01 13:50:37;;;;;;;9.70;1.98;;;;;;;4.81;93.57;99563.66;5067259;28;20103;-79
2023/02/01 13:53:06;;;;;;;9.10;2.72;;;;;;;4.75;94.47;99548.88;5067253;28;20392;-80
2023/02/01 13:55:35;;;;;;;4.80;1.63;;;;;;;4.63;93.67;99531.16;5065195;28;20048;-78
2023/02/01 13:58:20;;;;;;;9.30;2.53;;;;;;;4.84;92.83;99561.53;5048006;28;20044;-79
2023/02/01 14:00:47;;;;;;;9.85;2.50;;;;;;;4.68;93.43;99515.41;5049922;28;20038;-79
2023/02/01 14:03:20;;;;;;;9.32;2.28;;;;;;;4.75;92.69;99535.41;5066826;28;20131;-80
2023/02/01 14:06:15;;;;;;;6.55;1.83;;;;;;;4.79;92.20;99528.78;5067494;28;20059;-80
2023/02/01 14:08:47;;;;;;;11.73;2.58;;;;;;;4.89;91.44;99567.38;5063777;28;20053;-79
2023/02/01 14:11:37;;;;;;;18.00;2.88;;;;;;;4.88;91.87;99562.13;5066932;28;20057;-80
2023/02/01 14:14:42;;;;;;;9.00;2.13;;;;;;;4.83;91.48;99546.34;5066834;28;20124;-80
2023/02/01 14:17:37;;;;;;;13.45;2.58;;;;;;;4.84;92.20;99558.81;5064642;28;20412;-79
2023/02/01 14:20:45;;;;;;;14.50;3.35;;;;;;;4.94;91.59;99566.94;5064661;28;20080;-80
2023/02/01 14:23:18;;;;;;;13.77;2.60;;;;;;;4.75;91.35;99544.34;5065772;28;20114;-79
2023/02/01 14:25:46;;;;;;;8.70;1.55;;;;;;;4.83;89.54;99556.28;5059702;28;20128;-80
2023/02/01 14:28:23;;;;;;;11.80;1.85;;;;;;;4.76;90.00;99545.22;5066964;28;20044;-79
2023/02/01 14:30:50;;;;;;;8.70;2.10;;;;;;;4.91;89.97;99583.41;5066364;28;20059;-79
2023/02/01 14:33:24;;;;;;;7.35;2.03;;;;;;;4.87;91.38;99585.50;5067068;28;20408;-79
2023/02/01 14:36:03;;;;;;;8.75;2.17;;;;;;;4.73;91.73;99572.44;5066593;28;20055;-79
2023/02/01 14:38:32;;;;;;;9.87;2.37;;;;;;;4.75;92.54;99573.13;5066277;28;20050;-80
2023/02/01 14:41:22;;;;;;;10.15;2.78;;;;;;;4.65;93.72;99566.84;5057891;28;20774;-79
2023/02/01 14:44:13;;;;;;;12.75;2.03;;;;;;;4.74;93.34;99593.84;5061541;28;20053;-80
2023/02/01 14:47:11;;;;;;;17.13;2.80;;;;;;;4.73;94.85;99593.97;5066564;28;20542;-80
2023/02/01 14:49:43;;;;;;;7.78;1.92;;;;;;;4.57;94.60;99571.06;5068599;28;20057;-79
2023/02/01 14:52:15;;;;;;;11.90;2.47;;;;;;;4.67;94.80;99598.06;5065858;28;20053;-79
2023/02/01 14:54:42;;;;;;;12.48;2.53;;;;;;;4.52;94.32;99564.41;5054564;28;20045;-80
2023/02/01 14:57:17;;;;;;;16.30;2.63;;;;;;;4.71;93.49;99591.41;5033625;28;20071;-80
2023/02/01 14:59:46;;;;;;;8.77;3.00;;;;;;;4.70;94.43;99586.16;5046866;28;20083;-80
2023/02/01 15:02:22;;;;;;;12.30;2.45;;;;;;;4.69;92.89;99587.16;5051609;28;20045;-80
2023/02/01 15:04:55;;;;;;;4.80;1.58;;;;;;;4.62;91.27;99570.66;5053017;28;20049;-79
2023/02/01 15:07:23;;;;;;;16.20;2.67;;;;;;;4.76;91.72;99602.63;5048635;28;20116;-79
2023/02/01 15:09:53;;;;;;;17.38;2.85;;;;;;;4.62;92.47;99570.66;5040660;28;20095;-79
2023/02/01 15:12:26;;;;;;;13.55;2.10;;;;;;;4.54;92.27;99571.34;5042417;28;20045;-79
2023/02/01 15:15:12;;;;;;;8.65;1.95;;;;;;;4.72;92.26;99589.56;5049060;28;20053;-79
2023/02/01 15:17:40;;;;;;;8.32;1.58;;;;;;;4.73;91.20;99602.91;5043310;28;20049;-79
2023/02/01 15:20:16;;;;;;;7.57;1.63;;;;;;;4.60;90.53;99568.09;5048467;28;20060;-79
2023/02/01 15:22:52;;;;;;;7.65;1.55;;;;;;;4.65;89.42;99577.63;5029356;28;20481;-80
2023/02/01 15:25:21;;;;;;;7.38;1.90;;;;;;;4.71;88.53;99593.25;5030584;28;20060;-79
2023/02/01 15:27:47;;;;;;;10.43;3.03;;;;;;;4.70;89.10;99595.09;5029872;28;20049;-79
2023/02/01 15:30:18;;;;;;;10.32;2.33;;;;;;;4.65;89.22;99586.56;5030018;28;20045;-80
2023/02/01 15:32:47;;;;;;;10.07;2.83;;;;;;;4.73;88.63;99593.97;5039548;28;20056;-79
2023/02/01 15:35:37;;;;;;;9.45;1.88;;;;;;;4.83;88.98;99607.47;5049121;28;20049;-80
2023/02/01 15:38:33;;;;;;;11.18;2.08;;;;;;;4.73;87.61;99580.50;5049708;28;20530;-80
2023/02/01 15:41:02;;;;;;;11.07;2.55;;;;;;;4.67;88.33;99572.97;5049889;28;20056;-80
2023/02/01 15:43:30;;;;;;;5.00;2.22;;;;;;;4.87;87.39;99595.44;5048773;28;20049;-80
2023/02/01 15:45:59;;;;;;;5.57;1.55;;;;;;;4.66;86.97;99580.19;5049951;28;20373;-79
2023/02/01 15:48:35;;;;;;;11.73;2.17;;;;;;;4.70;87.25;99588.88;5048218;28;20067;-80
2023/02/01 15:51:02;;;;;;;8.73;2.33;;;;;;;4.71;87.00;99601.31;5045262;28;20064;-80
2023/02/01 15:53:30;;;;;;;6.95;1.90;;;;;;;4.81;86.57;99601.38;5049387;28;20053;-79
2023/02/01 15:56:01;;;;;;;6.18;1.38;;;;;;;4.70;87.02;99587.00;5049826;28;20439;-79
2023/02/01 15:58:29;;;;;;;13.50;2.00;;;;;;;4.70;86.92;99600.47;5048644;28;20056;-80
2023/02/01 16:00:59;;;;;;;8.65;1.30;;;;;;;4.70;87.12;99591.56;5048288;28;20480;-79
2023/02/01 16:03:36;;;;;;;22.38;3.38;;;;;;;4.70;87.75;99595.09;5041591;28;20045;-80
2023/02/01 16:06:05;;;;;;;9.57;2.35;;;;;;;4.72;87.68;99603.03;5047098;28;20053;-79
2023/02/01 16:08:34;;;;;;;7.35;2.47;;;;;;;4.65;87.93;99591.09;5049385;28;20048;-79
2023/02/01 16:11:15;;;;;;;7.70;2.05;;;;;;;4.68;88.32;99590.81;5029213;28;20683;-79
2023/02/01 16:13:42;;;;;;;6.50;1.73;;;;;;;4.85;88.05;99624.31;5029142;28;20049;-80
2023/02/01 16:16:13;;;;;;;13.23;2.85;;;;;;;4.75;88.84;99606.28;5036176;28;20099;-79
2023/02/01 16:18:41;;;;;;;9.55;1.80;;;;;;;4.72;88.20;99594.94;5044031;28;20733;-80
2023/02/01 16:21:08;;;;;;;8.02;2.38;;;;;;;4.83;88.51;99618.22;5049073;28;20057;-79
2023/02/01 16:23:35;;;;;;;6.80;1.52;;;;;;;4.66;88.51;99599.03;5048159;28;20072;-80
2023/02/01 16:26:01;;;;;;;14.30;3.38;;;;;;;4.65;88.93;99604.56;5048979;28;20406;-80
2023/02/01 16:28:28;;;;;;;7.97;2.38;;;;;;;4.67;88.78;99608.00;5049360;28;20416;-79
2023/02/01 16:30:55;;;;;;;8.13;2.20;;;;;;;4.74;88.35;99623.47;5038833;28;20122;-79
2023/02/01 16:33:23;;;;;;;6.40;1.73;;;;;;;4.75;88.45;99625.16;5040321;28;20041;-79
2023/02/01 16:35:51;;;;;;;5.32;1.65;;;;;;;4.63;89.14;99598.47;5048873;28;20052;-80
2023/02/01 16:38:22;;;;;;;2.58;1.80;;;;;;;4.62;88.64;99600.28;5048335;28;20041;-79
2023/02/01 16:40:49;;;;;;;5.22;1.80;;;;;;;4.59;88.18;99595.19;5048880;28;20519;-80
2023/02/01 16:43:18;;;;;;;8.15;2.17;;;;;;;4.60;88.97;99605.81;5047861;28;20480;-80
2023/02/01 16:45:48;;;;;;;3.15;1.45;;;;;;;4.65;88.94;99608.09;5041027;28;20072;-79
2023/02/01 16:48:21;;;;;;;19.80;3.30;;;;;;;4.43;88.96;99587.63;5047756;28;20118;-80
2023/02/01 16:50:50;;;;;;;7.60;2.20;;;;;;;4.41;89.19;99594.97;5048462;28;20055;-79
2023/02/01 16:53:19;;;;;;;12.63;2.08;;;;;;;4.35;89.90;99591.00;5048294;28;20412;-79
2023/02/01 16:55:47;;;;;;;9.65;2.40;;;;;;;4.36;90.32;99599.91;5047121;28;20052;-80
2023/02/01 16:58:14;;;;;;;7.80;2.05;;;;;;;4.45;89.90;99612.56;5047510;28;20408;-80
2023/02/01 17:00:40;;;;;;;21.75;3.55;;;;;;;4.50;87.84;99586.09;5038820;28;20045;-80
2023/02/01 17:03:07;;;;;;;10.02;1.85;;;;;;;4.46;88.11;99590.03;5047504;28;20052;-79
2023/02/01 17:05:34;;;;;;;20.10;2.50;;;;;;;4.51;88.06;99589.63;5048286;28;20048;-79
2023/02/01 17:08:04;;;;;;;21.23;3.20;;;;;;;4.54;88.20;99586.66;5048779;28;20488;-80
2023/02/01 17:10:32;;;;;;;10.43;2.45;;;;;;;4.49;87.80;99591.63;5048370;28;20053;-80
2023/02/01 17:12:59;;;;;;;8.55;2.20;;;;;;;4.68;88.05;99615.06;5045863;28;20060;-80
2023/02/01 17:15:28;;;;;;;16.00;2.53;;;;;;;4.66;87.66;99615.19;5039050;28;20057;-79
2023/02/01 17:17:56;;;;;;;10.37;2.37;;;;;;;4.67;88.05;99619.59;5048092;28;20056;-80
2023/02/01 17:20:25;;;;;;;11.48;2.30;;;;;;;4.73;87.30;99621.75;5048087;28;20132;-79
2023/02/01 17:22:52;;;;;;;9.50;1.80;;;;;;;4.72;87.63;99611.97;5047260;28;20053;-79
2023/02/01 17:25:21;;;;;;;10.43;2.28;;;;;;;4.66;87.31;99620.59;5048098;28;20279;-79
2023/02/01 17:27:49;;;;;;;17.95;2.45;;;;;;;4.58;87.47;99601.56;5046442;28;20049;-80
2023/02/01 17:30:17;;;;;;;12.68;1.90;;;;;;;4.68;86.79;99606.97;5047305;28;20045;-80
2023/02/01 17:32:44;;;;;;;6.75;2.08;;;;;;;4.63;86.81;99603.84;5047023;28;20049;-80
2023/02/01 17:35:18;;;;;;;14.25;2.80;;;;;;;4.62;86.90;99592.22;5048223;28;20098;-80
2023/02/01 17:37:45;;;;;;;14.00;2.75;;;;;;;4.68;86.84;99594.38;5048238;28;20060;-80
2023/02/01 17:40:13;;;;;;;13.77;2.00;;;;;;;4.63;86.24;99598.47;5047621;28;20048;-80
2023/02/01 17:42:39;;;;;;;13.95;3.08;;;;;;;4.67;86.18;99597.22;5046534;28;20049;-79
2023/02/01 17:45:20;;;;;;;7.90;1.70;;;;;;;4.71;85.88;99604.00;5038102;28;20063;-80
2023/02/01 17:47:47;;;;;;;11.05;3.22;;;;;;;4.71;86.02;99606.72;5040710;28;20107;-80
2023/02/01 17:50:14;;;;;;;11.38;2.15;;;;;;;4.84;85.80;99620.78;5028454;28;20465;-80
2023/02/01 17:52:41;;;;;;;11.90;2.10;;;;;;;4.78;86.02;99614.09;5026659;28;20079;-80
2023/02/01 17:55:17;;;;;;;8.38;2.40;;;;;;;4.74;85.71;99622.59;5027875;28;20054;-79
2023/02/01 17:57:44;;;;;;;10.05;2.25;;;;;;;4.74;85.95;99622.59;5028018;28;20041;-80
2023/02/01 18:00:14;;;;;;;9.90;2.10;;;;;;;4.81;86.46;99628.31;5045775;28;20048;-78
2023/02/01 18:02:41;;;;;;;13.55;2.65;;;;;;;4.68;85.84;99609.69;5046022;28;20049;-80
2023/02/01 18:05:18;;;;;;;12.10;3.25;;;;;;;4.82;85.52;99636.25;5047883;28;20052;-80
2023/02/01 18:07:44;;;;;;;11.07;2.67;;;;;;;4.78;85.47;99626.72;5047561;28;20103;-80
2023/02/01 18:10:11;;;;;;;6.93;1.90;;;;;;;4.81;84.96;99625.63;5047219;28;20496;-79
2023/02/01 18:12:38;;;;;;;6.30;2.58;;;;;;;4.82;86.06;99636.25;5040706;28;20464;-79
2023/02/01 18:15:17;;;;;;;8.65;1.90;;;;;;;4.69;85.74;99616.78;5044620;28;20057;-80
2023/02/01 18:17:44;;;;;;;12.65;4.07;;;;;;;4.67;85.96;99610.69;5046481;28;20083;-80
2023/02/01 18:20:15;;;;;;;4.80;1.92;;;;;;;4.79;86.43;99631.97;5047278;28;20140;-80
2023/02/01 18:22:42;;;;;;;10.68;2.50;;;;;;;4.70;86.88;99621.19;5046615;28;20107;-78
2023/02/01 18:25:28;;;;;;;5.00;1.88;;;;;;;4.86;86.07;99631.44;5045791;28;20139;-82
2023/02/01 18:27:58;;;;;;;8.32;1.35;;;;;;;4.78;86.98;99621.34;5038773;28;20054;-79
2023/02/01 18:30:31;;;;;;;13.85;2.53;;;;;;;4.85;86.87;99632.41;5038993;28;20423;-78
2023/02/01 18:33:04;;;;;;;12.15;2.55;;;;;;;4.64;87.27;99602.84;5041562;28;20041;-79
2023/02/01 18:35:32;;;;;;;13.13;3.00;;;;;;;4.67;87.32;99598.06;5033543;28;20099;-79
2023/02/01 18:37:59;;;;;;;6.50;1.83;;;;;;;4.75;86.85;99614.38;5038500;28;20060;-80
2023/02/01 18:40:27;;;;;;;4.50;2.15;;;;;;;4.61;86.67;99587.84;5053638;28;20057;-79
2023/02/01 18:42:54;;;;;;;11.82;2.53;;;;;;;4.76;85.89;99613.41;5038653;28;20354;-80
2023/02/01 18:45:26;;;;;;;6.28;1.88;;;;;;;4.83;86.45;99631.69;5038720;28;20045;-79
2023/02/01 18:47:54;;;;;;;12.50;2.67;;;;;;;4.79;86.05;99609.59;5046333;28;20064;-79
2023/02/01 18:50:22;;;;;;;9.95;2.25;;;;;;;4.69;86.24;99603.31;5050736;28;20045;-79
2023/02/01 18:52:48;;;;;;;14.55;2.10;;;;;;;4.61;86.78;99599.44;5047916;28;20051;-79
2023/02/01 18:55:15;;;;;;;8.05;2.13;;;;;;;4.67;87.59;99613.38;5050991;28;20051;-80
2023/02/01 18:57:42;;;;;;;11.32;2.70;;;;;;;4.77;86.67;99622.31;5050940;28;20064;-79
2023/02/01 19:00:11;;;;;;;9.68;1.83;;;;;;;4.67;86.62;99599.91;5034035;28;20056;-79
2023/02/01 19:02:38;;;;;;;12.38;1.75;;;;;;;4.67;87.32;99613.38;5050371;28;20055;-79
2023/02/01 19:05:08;;;;;;;15.40;2.45;;;;;;;4.78;87.15;99615.94;5041973;28;20504;-79
2023/02/01 19:07:34;;;;;;;15.30;1.80;;;;;;;4.61;86.73;99598.59;5048902;28;20041;-79
2023/02/01 19:10:01;;;;;;;8.63;1.98;;;;;;;4.56;87.54;99593.63;5050012;28;20288;-80
2023/02/01 19:12:28;;;;;;;11.32;2.38;;;;;;;4.74;86.95;99601.03;5031010;28;20420;-79
2023/02/01 19:14:54;;;;;;;13.82;2.50;;;;;;;4.77;86.51;99619.63;5041143;28;20143;-79
2023/02/01 19:17:22;;;;;;;13.63;1.95;;;;;;;4.66;86.86;99606.28;5051069;28;20064;-79
2023/02/01 19:19:49;;;;;;;4.30;1.63;;;;;;;4.58;86.96;99590.81;5042925;28;20130;-79
2023/02/01 19:22:17;;;;;;;11.45;2.08;;;;;;;4.70;86.83;99611.25;5041728;28;20056;-79
2023/02/01 19:24:44;;;;;;;11.00;2.20;;;;;;;4.59;86.59;99587.09;5050027;28;20063;-79
2023/02/01 19:27:11;;;;;;;10.18;2.35;;;;;;;4.61;86.52;99583.28;5049367;28;20056;-79
2023/02/01 19:29:39;;;;;;;14.60;2.25;;;;;;;4.61;85.99;99580.59;5036051;28;20238;-80
2023/02/01 19:32:06;;;;;;;5.80;1.75;;;;;;;4.72;85.95;99605.72;5047602;28;20098;-79
2023/02/01 19:34:32;;;;;;;13.27;2.17;;;;;;;4.68;86.44;99593.50;5050463;28;20072;-79
2023/02/01 19:36:59;;;;;;;10.75;2.47;;;;;;;4.68;86.15;99597.09;5048827;28;20048;-79
2023/02/01 19:39:27;;;;;;;8.13;1.90;;;;;;;4.60;85.88;99595.03;5046847;28;20048;-79
2023/02/01 19:41:54;;;;;;;14.18;2.13;;;;;;;4.72;86.67;99605.72;5042670;28;20056;-79
2023/02/01 19:44:20;;;;;;;4.85;1.10;;;;;;;4.81;86.31;99612.97;5033420;28;20052;-80
2023/02/01 19:46:48;;;;;;;9.90;1.83;;;;;;;4.81;85.65;99617.53;5049974;28;20053;-79
2023/02/01 19:49:15;;;;;;;8.65;2.78;;;;;;;4.86;84.45;99621.50;5050365;28;20397;-79
2023/02/01 19:51:43;;;;;;;10.32;1.60;;;;;;;4.77;84.75;99603.47;5049413;28;20056;-79
2023/02/01 19:54:10;;;;;;;10.38;2.50;;;;;;;4.84;85.53;99620.78;5048287;28;20136;-79
2023/02/01 19:56:42;;;;;;;15.27;2.33;;;;;;;4.73;85.78;99596.66;5048711;28;20045;-79
2023/02/01 19:59:09;;;;;;;12.50;2.33;;;;;;;4.75;86.40;99600.91;5041683;28;20045;-79
2023/02/01 20:01:36;;;;;;;8.43;1.60;;;;;;;4.87;86.79;99633.97;5048956;28;20053;-80
2023/02/01 20:04:05;;;;;;;7.05;2.10;;;;;;;4.86;86.10;99628.72;5048514;28;20162;-80
2023/02/01 20:06:34;;;;;;;16.98;2.22;;;;;;;4.78;86.33;99618.66;5049175;28;20051;-79
2023/02/01 20:09:01;;;;;;;6.63;1.95;;;;;;;4.89;86.12;99632.03;5048697;28;20051;-80
2023/02/01 20:11:27;;;;;;;5.43;1.67;;;;;;;4.77;86.52;99615.09;5038275;28;20045;-80
2023/02/01 20:13:57;;;;;;;16.02;2.17;;;;;;;4.95;86.65;99657.53;5038342;28;20052;-80
2023/02/01 20:16:24;;;;;;;5.95;1.50;;;;;;;4.89;87.03;99648.19;5049093;28;20080;-80
2023/02/01 20:18:51;;;;;;;6.15;2.00;;;;;;;4.88;87.28;99643.78;5049929;28;20513;-80
2023/02/01 20:21:18;;;;;;;10.57;2.35;;;;;;;4.79;87.04;99628.44;5048963;28;20678;-80
2023/02/01 20:23:46;;;;;;;10.00;2.05;;;;;;;4.95;86.41;99658.41;5047520;28;20055;-79
2023/02/01 20:26:13;;;;;;;9.90;2.08;;;;;;;4.88;86.86;99632.16;5044947;28;20420;-79
2023/02/01 20:28:40;;;;;;;9.65;1.88;;;;;;;4.80;86.50;99616.66;5048971;28;20049;-79
2023/02/01 20:31:09;;;;;;;7.97;1.60;;;;;;;4.95;86.21;99638.69;5046679;28;20060;-79
2023/02/01 20:33:36;;;;;;;10.25;1.90;;;;;;;4.81;86.92;99610.28;5033899;28;20052;-79
2023/02/01 20:36:03;;;;;;;13.40;3.22;;;;;;;4.81;86.98;99617.53;5036272;28;20049;-78
2023/02/01 20:38:30;;;;;;;20.85;2.95;;;;;;;4.90;87.48;99643.66;5022411;28;20524;-79
2023/02/01 20:41:02;;;;;;;17.75;2.53;;;;;;;4.89;87.58;99648.19;5022610;28;20061;-79
2023/02/01 20:43:28;;;;;;;9.27;2.47;;;;;;;4.91;88.16;99651.59;5024469;28;20870;-79
2023/02/01 20:45:55;;;;;;;15.88;2.30;;;;;;;4.91;88.49;99658.84;5023949;28;20056;-79
2023/02/01 20:48:22;;;;;;;14.80;2.92;;;;;;;4.87;87.34;99630.44;5025494;28;20064;-79
2023/02/01 20:50:53;;;;;;;11.55;2.80;;;;;;;4.86;87.91;99634.13;5020636;28;20049;-79
2023/02/01 20:53:19;;;;;;;7.05;2.03;;;;;;;5.02;87.76;99652.47;5026002;28;20535;-80
2023/02/01 20:55:46;;;;;;;9.85;2.40;;;;;;;4.87;88.22;99627.75;5025088;28;20049;-79
2023/02/01 20:58:12;;;;;;;14.13;3.17;;;;;;;4.91;88.44;99630.03;5029909;28;20045;-79
2023/02/01 21:00:39;;;;;;;10.25;2.63;;;;;;;5.04;88.51;99654.03;5026932;28;20056;-79
2023/02/01 21:03:06;;;;;;;10.82;2.05;;;;;;;4.86;88.95;99617.97;5024352;28;20164;-80
2023/02/01 21:05:39;;;;;;;10.30;2.28;;;;;;;5.02;88.20;99641.69;5028174;28;20091;-79
2023/02/01 21:08:06;;;;;;;9.70;1.70;;;;;;;4.89;87.89;99615.84;5025867;28;20053;-79
2023/02/01 21:10:33;;;;;;;13.38;3.90;;;;;;;4.90;88.87;99622.94;5026931;28;20481;-79
2023/02/01 21:13:00;;;;;;;12.00;1.60;;;;;;;5.00;88.27;99640.97;5024937;28;20049;-80
2023/02/01 21:15:26;;;;;;;10.70;1.92;;;;;;;4.88;88.41;99597.97;5019947;28;20144;-79
2023/02/01 21:17:53;;;;;;;16.08;2.13;;;;;;;4.91;88.28;99605.78;5030127;28;20053;-78
2023/02/01 21:20:20;;;;;;;10.02;1.80;;;;;;;4.95;88.69;99611.75;5030007;28;20052;-79
2023/02/01 21:22:48;;;;;;;5.63;1.65;;;;;;;5.01;89.12;99627.34;5026748;28;20064;-79
2023/02/01 21:25:14;;;;;;;10.27;2.67;;;;;;;4.91;89.20;99637.28;5022803;28;20509;-79
2023/02/01 21:27:41;;;;;;;8.82;1.70;;;;;;;4.83;89.75;99626.31;5025111;28;20087;-79
2023/02/01 21:30:09;;;;;;;11.32;2.33;;;;;;;4.78;89.14;99597.94;5024691;28;20525;-79
2023/02/01 21:32:36;;;;;;;11.73;2.38;;;;;;;4.92;88.77;99602.13;5019436;28;20057;-79
2023/02/01 21:35:02;;;;;;;13.63;2.53;;;;;;;4.93;88.49;99602.97;5024309;28;21094;-79
2023/02/01 21:37:29;;;;;;;11.32;2.80;;;;;;;4.88;88.73;99594.44;5022192;28;20065;-79
2023/02/01 21:39:57;;;;;;;6.95;1.77;;;;;;;4.95;88.87;99601.84;5027648;28;20543;-79
2023/02/01 21:42:25;;;;;;;11.73;1.83;;;;;;;4.86;88.05;99586.47;5024235;28;20128;-78
2023/02/01 21:44:52;;;;;;;4.05;1.23;;;;;;;4.85;88.51;99590.19;5024407;28;20144;-79
2023/02/01 21:47:21;;;;;;;6.57;1.30;;;;;;;4.81;89.28;99588.75;5024998;28;20061;-79
2023/02/01 21:49:48;;;;;;;11.27;2.05;;;;;;;4.92;89.15;99604.81;5027148;28;20057;-79
2023/02/01 21:52:16;;;;;;;9.75;1.83;;;;;;;4.85;nan;99605.47;5019327;28;20056;-79
2023/02/01 21:54:43;;;;;;;11.27;2.35;;;;;;;4.83;90.43;99585.91;5015410;28;20076;-79
2023/02/01 21:57:11;;;;;;;21.15;3.15;;;;;;;4.82;90.41;99586.88;5026597;28;20045;-78
2023/02/01 21:59:38;;;;;;;13.95;1.98;;;;;;;4.93;90.45;99632.59;5026339;28;20049;-79
2023/02/01 22:02:05;;;;;;;7.93;1.75;;;;;;;4.86;90.54;99583.78;5024768;28;20045;-79
2023/02/01 22:04:31;;;;;;;10.88;2.08;;;;;;;4.81;91.60;99598.69;5036517;28;20477;-79
2023/02/01 22:06:58;;;;;;;12.65;2.40;;;;;;;4.78;91.81;99594.41;5030021;28;20388;-79
2023/02/01 22:09:26;;;;;;;12.10;2.30;;;;;;;4.79;91.48;99599.66;5030634;28;20455;-79
2023/02/01 22:11:54;;;;;;;9.55;1.77;;;;;;;4.79;90.98;99604.19;5026620;28;20068;-79
2023/02/01 22:14:23;;;;;;;7.20;1.88;;;;;;;4.84;91.36;99619.94;5026358;28;20060;-79
2023/02/01 22:16:49;;;;;;;9.10;1.80;;;;;;;4.79;91.06;99586.19;5037039;28;20338;-79
2023/02/01 22:19:16;;;;;;;15.45;2.53;;;;;;;4.81;91.12;99612.97;5031651;28;20137;-79
2023/02/01 22:21:45;;;;;;;10.32;2.03;;;;;;;4.90;90.95;99625.63;5026111;28;20056;-78
2023/02/01 22:24:12;;;;;;;10.32;1.55;;;;;;;4.95;91.34;99626.09;5027985;28;20053;-79
2023/02/01 22:26:40;;;;;;;6.20;1.85;;;;;;;4.88;91.27;99616.84;5026453;28;20053;-79
2023/02/01 22:29:07;;;;;;;6.40;1.73;;;;;;;4.98;91.00;99630.31;5031545;28;20548;-79
2023/02/01 22:31:35;;;;;;;13.50;2.05;;;;;;;4.83;91.02;99604.75;5028675;28;20059;-79
2023/02/01 22:34:02;;;;;;;6.90;1.95;;;;;;;5.00;91.26;99624.78;5030125;28;20543;-79
2023/02/01 22:36:28;;;;;;;10.85;2.50;;;;;;;4.96;91.95;99627.78;5024940;28;20049;-79
2023/02/01 22:38:56;;;;;;;11.30;1.88;;;;;;;4.84;93.15;99622.63;5034618;28;20452;-80
2023/02/01 22:41:23;;;;;;;10.80;1.60;;;;;;;4.87;94.23;99635.84;5027873;28;20056;-78
2023/02/01 22:43:50;;;;;;;12.23;2.38;;;;;;;4.72;95.12;99608.41;5024971;28;20064;-79
2023/02/01 22:46:20;;;;;;;6.75;1.15;;;;;;;4.77;95.28;99622.31;5032699;28;20057;-79
2023/02/01 22:48:48;;;;;;;9.32;2.72;;;;;;;4.66;96.27;99620.59;5024165;28;20056;-79
2023/02/01 22:51:17;;;;;;;9.15;1.80;;;;;;;4.63;97.35;99623.53;5029698;28;20053;-79
2023/02/01 22:53:43;;;;;;;8.07;2.25;;;;;;;4.64;97.92;99624.38;5029021;28;20479;-79
2023/02/01 22:56:12;;;;;;;9.15;2.05;;;;;;;4.61;98.51;99622.84;5026714;28;20049;-79
2023/02/01 22:58:39;;;;;;;11.15;2.17;;;;;;;4.68;99.11;99642.88;5030435;28;20045;-79
2023/02/01 23:01:07;;;;;;;11.45;1.90;;;;;;;4.67;99.77;99629.53;5033178;28;20053;-78
2023/02/01 23:03:34;;;;;;;10.98;2.38;;;;;;;4.59;100.00;99630.19;5034033;28;20041;-79
2023/02/01 23:06:03;;;;;;;17.30;2.42;;;;;;;4.66;100.00;99635.91;5029863;28;20451;-78
2023/02/01 23:08:30;;;;;;;13.60;2.25;;;;;;;4.55;100.00;99618.00;5023086;28;20297;-79
2023/02/01 23:11:00;;;;;;;8.15;1.35;;;;;;;4.58;100.00;99642.81;5030987;28;20072;-79
2023/02/01 23:13:27;;;;;;;11.98;2.08;;;;;;;4.53;100.00;99626.22;5028396;28;20045;-79
2023/02/01 23:15:53;;;;;;;10.65;2.28;;;;;;;4.52;100.00;99612.88;5029929;28;20061;-79
2023/02/01 23:18:20;;;;;;;14.93;2.00;;;;;;;4.66;100.00;99643.97;5030751;28;20060;-79
2023/02/01 23:20:47;;;;;;;5.72;1.90;;;;;;;4.66;100.00;99647.50;5028361;28;20052;-79
2023/02/01 23:23:14;;;;;;;7.78;1.90;;;;;;;4.47;100.00;99617.81;5027870;28;20061;-79
2023/02/01 23:25:41;;;;;;;10.80;2.42;;;;;;;4.55;100.00;99618.84;5031627;28;20049;-79
2023/02/01 23:28:07;;;;;;;8.32;1.48;;;;;;;4.63;100.00;99639.72;5036515;28;20492;-79
2023/02/01 23:30:34;;;;;;;6.00;2.00;;;;;;;4.61;100.00;99628.22;5029644;28;20468;-79
2023/02/01 23:33:00;;;;;;;13.43;1.63;;;;;;;4.65;100.00;99644.97;5030893;28;20045;-79
2023/02/01 23:35:27;;;;;;;14.75;2.40;;;;;;;4.68;100.00;99644.69;5030217;28;20048;-79
2023/02/01 23:37:54;;;;;;;8.40;1.42;;;;;;;4.67;100.00;99634.94;5025652;28;20061;-79
2023/02/01 23:40:22;;;;;;;11.57;2.38;;;;;;;4.57;100.00;99638.41;5025007;28;20227;-79
2023/02/01 23:43:56;;;;;;;9.80;2.35;;;;;;;4.49;100.00;99619.38;5026728;28;20060;-80
2023/02/01 23:45:34;;;;;;;12.45;2.75;;;;;;;4.55;100.00;99609.94;5030006;28;20164;-79
2023/02/01 23:48:00;;;;;;;13.73;2.72;;;;;;;4.49;100.00;99619.38;5031563;28;20057;-79
2023/02/01 23:50:27;;;;;;;12.35;1.98;;;;;;;4.56;100.00;99639.41;5023839;28;20053;-79
2023/02/01 23:52:55;;;;;;;5.25;1.27;;;;;;;4.57;100.00;99637.56;5026948;28;20057;-79
2023/02/01 23:55:23;;;;;;;9.80;1.83;;;;;;;4.45;100.00;99612.56;5030777;28;20456;-79
2023/02/01 23:57:49;;;;;;;9.65;2.05;;;;;;;4.59;100.00;99643.66;5027222;28;20056;-79
